Aviation Digital Data Service (ADDS)

Output produced by METARs form (2029 UTC 28 July 2014)
found at http://aviationweather.gov/adds/metars/
 
KGSP 281724Z 2818/2918 29013G18KT P6SM FEW050 
     FM282200 32009KT P6SM FEW250 
     FM290600 35005KT P6SM FEW250